CEB113 RCKH-RPLL
Flight info
| Callsign | CEB113 |
|---|---|
| Flight time | N/A |
| Altitude | 38000 |
| Route | HCN1B HCN M646 SANRO/N0461F370 W4 NABAL NABAL3R |
| Aircraft | A339/H-SADE1E2E3GHIJ3J5M1P2RWXY/LB2D1 |
Departure
| Time | 2026-05-04 16:22 |
|---|---|
| Airport | Kaohsiung International Airport (RCKH) |
Arrival
| Time | N/A |
|---|---|
| Airport | Ninoy Aquino International Airport (RPLL) |
| Time | Latitude | Longitude | Altitude | Speed | Heading |
|---|---|---|---|---|---|
| 2026-05-04 16:16 | 22.57340 | 120.34562 | 42 ft | 0 kts | 180° |
| 2026-05-04 16:18 | 22.57297 | 120.34607 | 44 ft | 7 kts | 87° |
| 2026-05-04 16:18 | 22.57332 | 120.34613 | 44 ft | 15 kts | 353° |
| 2026-05-04 16:19 | 22.57519 | 120.34724 | 44 ft | 10 kts | 99° |
| 2026-05-04 16:19 | 22.57530 | 120.34982 | 44 ft | 19 kts | 84° |
| 2026-05-04 16:20 | 22.57522 | 120.35692 | 44 ft | 48 kts | 91° |
| 2026-05-04 16:20 | 22.57496 | 120.36381 | 44 ft | 42 kts | 92° |
| 2026-05-04 16:21 | 22.57673 | 120.36210 | 45 ft | 51 kts | 273° |
| 2026-05-04 16:22 | 22.57704 | 120.35226 | 44 ft | 99 kts | 271° |
| 2026-05-04 16:22 | 22.57818 | 120.31565 | 1716 ft | 190 kts | 272° |
| 2026-05-04 16:23 | 22.57947 | 120.26686 | 3754 ft | 233 kts | 270° |
| 2026-05-04 16:24 | 22.53987 | 120.21614 | 6605 ft | 255 kts | 182° |
| 2026-05-04 16:25 | 22.50557 | 120.22651 | 7995 ft | 260 kts | 158° |
| 2026-05-04 16:26 | 22.43120 | 120.25645 | 9279 ft | 324 kts | 163° |
| 2026-05-04 16:26 | 22.36162 | 120.28096 | 9800 ft | 374 kts | 163° |
| 2026-05-04 16:27 | 22.31085 | 120.29891 | 10410 ft | 388 kts | 163° |
| 2026-05-04 16:28 | 22.23367 | 120.32622 | 11783 ft | 394 kts | 164° |
| 2026-05-04 16:28 | 22.15487 | 120.35401 | 13190 ft | 400 kts | 164° |
| 2026-05-04 16:29 | 22.04764 | 120.39179 | 14853 ft | 411 kts | 165° |
| 2026-05-04 16:30 | 21.96513 | 120.42084 | 16013 ft | 420 kts | 165° |
| 2026-05-04 16:31 | 21.90911 | 120.44056 | 16781 ft | 427 kts | 165° |
| 2026-05-04 16:31 | 21.82351 | 120.47066 | 17891 ft | 436 kts | 166° |
| 2026-05-04 16:32 | 21.73620 | 120.50131 | 18971 ft | 443 kts | 166° |
| 2026-05-04 16:33 | 21.67725 | 120.52198 | 19673 ft | 448 kts | 166° |
| 2026-05-04 16:33 | 21.61774 | 120.54286 | 20375 ft | 452 kts | 166° |
| 2026-05-04 16:34 | 21.55766 | 120.56391 | 21088 ft | 456 kts | 167° |
| 2026-05-04 16:34 | 21.52741 | 120.57449 | 21427 ft | 458 kts | 167° |
| 2026-05-04 16:35 | 21.43639 | 120.60631 | 22471 ft | 465 kts | 167° |
| 2026-05-04 16:35 | 21.34338 | 120.63878 | 23467 ft | 472 kts | 167° |
| 2026-05-04 16:36 | 21.31211 | 120.64969 | 23774 ft | 474 kts | 167° |
| 2026-05-04 16:36 | 21.24919 | 120.67164 | 24352 ft | 478 kts | 167° |
| 2026-05-04 16:37 | 21.18572 | 120.69375 | 24901 ft | 481 kts | 167° |
| 2026-05-04 16:37 | 21.15378 | 120.70487 | 25048 ft | 484 kts | 166° |
| 2026-05-04 16:37 | 21.08990 | 120.72710 | 25016 ft | 483 kts | 167° |
| 2026-05-04 16:38 | 21.02569 | 120.74763 | 25008 ft | 479 kts | 172° |
| 2026-05-04 16:39 | 20.92746 | 120.75262 | 25008 ft | 468 kts | 189° |
| 2026-05-04 16:39 | 20.86240 | 120.74691 | 25009 ft | 469 kts | 188° |
| 2026-05-04 16:40 | 20.79725 | 120.74151 | 25000 ft | 470 kts | 188° |
| 2026-05-04 16:40 | 20.73195 | 120.73615 | 25003 ft | 471 kts | 188° |
| 2026-05-04 16:41 | 20.66661 | 120.73077 | 24997 ft | 471 kts | 188° |
| 2026-05-04 16:41 | 20.56849 | 120.72269 | 24995 ft | 472 kts | 188° |
| 2026-05-04 16:42 | 20.47026 | 120.71462 | 24993 ft | 472 kts | 188° |
| 2026-05-04 16:43 | 20.40471 | 120.70924 | 24991 ft | 472 kts | 188° |
| 2026-05-04 16:43 | 20.33916 | 120.70386 | 24991 ft | 472 kts | 188° |
| 2026-05-04 16:43 | 20.30637 | 120.70117 | 24989 ft | 473 kts | 188° |
| 2026-05-04 16:44 | 20.17527 | 120.69044 | 24987 ft | 473 kts | 188° |
| 2026-05-04 16:45 | 20.10958 | 120.68507 | 24984 ft | 474 kts | 188° |
| 2026-05-04 16:46 | 20.01099 | 120.67700 | 24984 ft | 474 kts | 188° |
| 2026-05-04 16:46 | 19.94524 | 120.67165 | 24981 ft | 474 kts | 188° |
| 2026-05-04 16:47 | 19.87948 | 120.66628 | 24982 ft | 474 kts | 188° |
| 2026-05-04 16:47 | 19.81372 | 120.66090 | 24975 ft | 474 kts | 188° |
| 2026-05-04 16:48 | 19.71510 | 120.65287 | 24976 ft | 474 kts | 188° |
| 2026-05-04 16:48 | 19.68222 | 120.65020 | 24975 ft | 474 kts | 188° |
| 2026-05-04 16:49 | 19.61681 | 120.64489 | 24974 ft | 474 kts | 188° |
| 2026-05-04 16:49 | 19.55096 | 120.63954 | 24971 ft | 475 kts | 187° |
| 2026-05-04 16:50 | 19.48509 | 120.63418 | 24967 ft | 475 kts | 187° |
| 2026-05-04 16:50 | 19.41927 | 120.62883 | 24969 ft | 475 kts | 187° |
| 2026-05-04 16:51 | 19.35336 | 120.62349 | 24965 ft | 475 kts | 187° |
| 2026-05-04 16:51 | 19.32037 | 120.62083 | 24962 ft | 475 kts | 187° |
| 2026-05-04 16:51 | 19.25448 | 120.61551 | 24963 ft | 475 kts | 187° |
| 2026-05-04 16:52 | 19.18852 | 120.61017 | 24960 ft | 476 kts | 187° |
| 2026-05-04 16:52 | 19.15557 | 120.60750 | 24962 ft | 476 kts | 187° |
| 2026-05-04 16:53 | 19.08953 | 120.60216 | 24957 ft | 476 kts | 187° |
| 2026-05-04 16:53 | 18.99042 | 120.59415 | 24941 ft | 477 kts | 186° |
| 2026-05-04 16:54 | 18.95715 | 120.59144 | 24951 ft | 482 kts | 186° |
| 2026-05-04 16:55 | 18.82362 | 120.58072 | 24940 ft | 481 kts | 186° |
| 2026-05-04 16:55 | 18.75687 | 120.57535 | 24936 ft | 481 kts | 186° |
| 2026-05-04 16:56 | 18.69009 | 120.56998 | 24933 ft | 481 kts | 186° |
| 2026-05-04 16:56 | 18.59039 | 120.56197 | 24920 ft | 482 kts | 186° |
| 2026-05-04 16:57 | 18.55696 | 120.55929 | 24919 ft | 482 kts | 186° |
| 2026-05-04 16:57 | 18.49009 | 120.55392 | 24918 ft | 482 kts | 186° |
| 2026-05-04 16:58 | 18.38967 | 120.54588 | 24909 ft | 482 kts | 186° |
| 2026-05-04 16:58 | 18.35622 | 120.54320 | 24905 ft | 482 kts | 186° |
| 2026-05-04 16:59 | 18.28928 | 120.53784 | 24906 ft | 483 kts | 186° |
| 2026-05-04 17:00 | 18.15531 | 120.52692 | 24899 ft | 483 kts | 187° |
| 2026-05-04 17:00 | 18.05531 | 120.51461 | 24899 ft | 483 kts | 188° |
| 2026-05-04 17:01 | 17.98859 | 120.50647 | 24898 ft | 483 kts | 187° |
| 2026-05-04 17:01 | 17.92195 | 120.49855 | 24899 ft | 484 kts | 187° |
| 2026-05-04 17:02 | 17.85670 | 120.49083 | 24899 ft | 484 kts | 187° |
| 2026-05-04 17:02 | 17.78991 | 120.48294 | 24902 ft | 484 kts | 187° |
| 2026-05-04 17:03 | 17.75690 | 120.47904 | 24902 ft | 483 kts | 187° |
| 2026-05-04 17:03 | 17.72345 | 120.47509 | 24900 ft | 484 kts | 187° |
| 2026-05-04 17:03 | 17.65657 | 120.46719 | 24903 ft | 484 kts | 187° |
| 2026-05-04 17:04 | 17.58962 | 120.45929 | 24901 ft | 484 kts | 187° |
| 2026-05-04 17:04 | 17.52271 | 120.45140 | 24902 ft | 484 kts | 187° |
| 2026-05-04 17:05 | 17.46658 | 120.44479 | 24905 ft | 484 kts | 187° |
| 2026-05-04 17:05 | 17.39958 | 120.43690 | 24914 ft | 484 kts | 187° |
| 2026-05-04 17:06 | 17.33265 | 120.42901 | 24907 ft | 484 kts | 187° |
| 2026-05-04 17:06 | 17.29910 | 120.42505 | 24909 ft | 485 kts | 187° |
| 2026-05-04 17:07 | 17.23214 | 120.41718 | 24912 ft | 485 kts | 187° |
| 2026-05-04 17:07 | 17.20992 | 120.41456 | 24916 ft | 485 kts | 187° |
| 2026-05-04 17:07 | 17.16544 | 120.40933 | 24912 ft | 485 kts | 187° |
| 2026-05-04 17:07 | 17.13186 | 120.40539 | 24914 ft | 486 kts | 187° |
| 2026-05-04 17:08 | 17.09831 | 120.40145 | 24917 ft | 486 kts | 187° |
| 2026-05-04 17:08 | 17.03110 | 120.39357 | 24920 ft | 486 kts | 187° |
| 2026-05-04 17:08 | 16.99751 | 120.38961 | 24923 ft | 486 kts | 187° |
| 2026-05-04 17:09 | 16.96364 | 120.38562 | 24925 ft | 486 kts | 187° |
| 2026-05-04 17:09 | 16.93003 | 120.38168 | 24912 ft | 485 kts | 187° |
| 2026-05-04 17:09 | 16.89663 | 120.37777 | 24548 ft | 482 kts | 187° |
| 2026-05-04 17:10 | 16.83082 | 120.37005 | 23222 ft | 476 kts | 187° |
| 2026-05-04 17:10 | 16.73463 | 120.36009 | 21159 ft | 449 kts | 181° |
| 2026-05-04 17:11 | 16.70342 | 120.36132 | 20993 ft | 452 kts | 175° |
| 2026-05-04 17:11 | 16.67208 | 120.36546 | 21146 ft | 456 kts | 172° |
| 2026-05-04 17:11 | 16.60879 | 120.37397 | 21653 ft | 461 kts | 173° |
| 2026-05-04 17:12 | 16.57696 | 120.37816 | 21907 ft | 464 kts | 173° |
| 2026-05-04 17:12 | 16.51249 | 120.38666 | 22402 ft | 469 kts | 173° |
| 2026-05-04 17:13 | 16.41554 | 120.39947 | 22012 ft | 463 kts | 173° |
| 2026-05-04 17:14 | 16.32131 | 120.41192 | 20957 ft | 453 kts | 173° |
| 2026-05-04 17:14 | 16.28997 | 120.41607 | 20952 ft | 455 kts | 173° |
| 2026-05-04 17:14 | 16.22723 | 120.42435 | 20951 ft | 455 kts | 173° |
| 2026-05-04 17:15 | 16.19570 | 120.42851 | 20950 ft | 455 kts | 173° |
| 2026-05-04 17:15 | 16.13294 | 120.43679 | 20950 ft | 455 kts | 173° |
| 2026-05-04 17:16 | 16.07066 | 120.44500 | 20946 ft | 454 kts | 173° |
| 2026-05-04 17:16 | 15.97611 | 120.45745 | 20949 ft | 456 kts | 173° |
| 2026-05-04 17:17 | 15.94469 | 120.46159 | 20947 ft | 455 kts | 173° |
| 2026-05-04 17:17 | 15.85082 | 120.47393 | 20946 ft | 456 kts | 173° |
| 2026-05-04 17:18 | 15.81940 | 120.47807 | 20948 ft | 456 kts | 172° |
| 2026-05-04 17:18 | 15.75697 | 120.48627 | 20949 ft | 456 kts | 172° |
| 2026-05-04 17:19 | 15.69413 | 120.49452 | 20953 ft | 456 kts | 172° |
| 2026-05-04 17:19 | 15.63177 | 120.50266 | 20837 ft | 441 kts | 173° |
| 2026-05-04 17:20 | 15.57286 | 120.51023 | 20550 ft | 410 kts | 173° |
| 2026-05-04 17:20 | 15.51826 | 120.51375 | 19965 ft | 382 kts | 177° |
| 2026-05-04 17:20 | 15.49188 | 120.51484 | 19383 ft | 378 kts | 177° |
| 2026-05-04 17:21 | 15.43983 | 120.51683 | 18253 ft | 370 kts | 177° |
| 2026-05-04 17:21 | 15.38894 | 120.51860 | 16995 ft | 363 kts | 177° |
| 2026-05-04 17:22 | 15.36383 | 120.51942 | 16379 ft | 359 kts | 177° |
| 2026-05-04 17:22 | 15.33898 | 120.52019 | 15770 ft | 355 kts | 177° |
| 2026-05-04 17:23 | 15.26608 | 120.52230 | 13980 ft | 346 kts | 177° |
| 2026-05-04 17:23 | 15.24219 | 120.52296 | 13349 ft | 343 kts | 177° |
| 2026-05-04 17:23 | 15.19649 | 120.53361 | 11960 ft | 335 kts | 157° |
| 2026-05-04 17:24 | 15.17491 | 120.54237 | 11317 ft | 332 kts | 157° |
| 2026-05-04 17:24 | 15.11121 | 120.56777 | 10108 ft | 329 kts | 157° |
| 2026-05-04 17:25 | 15.08982 | 120.57620 | 10057 ft | 327 kts | 157° |
| 2026-05-04 17:25 | 15.04750 | 120.59283 | 9295 ft | 324 kts | 157° |
| 2026-05-04 17:26 | 15.00576 | 120.60909 | 8209 ft | 317 kts | 157° |
| 2026-05-04 17:26 | 14.94303 | 120.63339 | 8019 ft | 321 kts | 157° |
| 2026-05-04 17:27 | 14.90146 | 120.64949 | 7489 ft | 317 kts | 157° |
| 2026-05-04 17:27 | 14.86037 | 120.66531 | 6211 ft | 313 kts | 157° |
| 2026-05-04 17:28 | 14.82011 | 120.68097 | 5150 ft | 308 kts | 157° |
| 2026-05-04 17:29 | 14.75943 | 120.70345 | 4990 ft | 309 kts | 164° |
| 2026-05-04 17:29 | 14.69674 | 120.71584 | 4992 ft | 310 kts | 167° |
| 2026-05-04 17:30 | 14.63308 | 120.72814 | 4991 ft | 310 kts | 167° |
| 2026-05-04 17:31 | 14.59108 | 120.73617 | 4312 ft | 305 kts | 167° |
| 2026-05-04 17:31 | 14.52983 | 120.74803 | 3043 ft | 283 kts | 167° |
| 2026-05-04 17:32 | 14.49283 | 120.75509 | 2994 ft | 269 kts | 167° |
| 2026-05-04 17:33 | 14.43784 | 120.76519 | 2990 ft | 269 kts | 167° |
| 2026-05-04 17:33 | 14.41958 | 120.76844 | 2990 ft | 266 kts | 167° |
| 2026-05-04 17:34 | 14.38745 | 120.80529 | 2995 ft | 253 kts | 82° |
| 2026-05-04 17:34 | 14.39400 | 120.82079 | 3016 ft | 243 kts | 54° |
| 2026-05-04 17:35 | 14.41887 | 120.85675 | 3013 ft | 180 kts | 62° |
| 2026-05-04 17:35 | 14.43120 | 120.87924 | 2624 ft | 177 kts | 62° |
| 2026-05-04 17:35 | 14.43706 | 120.88994 | 2408 ft | 168 kts | 61° |
| 2026-05-04 17:36 | 14.44248 | 120.89974 | 2197 ft | 150 kts | 61° |
| 2026-05-04 17:36 | 14.44740 | 120.90867 | 2014 ft | 140 kts | 62° |
| 2026-05-04 17:36 | 14.45224 | 120.91748 | 1829 ft | 139 kts | 61° |
| 2026-05-04 17:36 | 14.45704 | 120.92617 | 1664 ft | 141 kts | 61° |
| 2026-05-04 17:37 | 14.46174 | 120.93469 | 1484 ft | 141 kts | 61° |
| 2026-05-04 17:37 | 14.46655 | 120.94339 | 1290 ft | 135 kts | 62° |
| 2026-05-04 17:37 | 14.47131 | 120.95207 | 1135 ft | 146 kts | 62° |
| 2026-05-04 17:37 | 14.47626 | 120.96101 | 926 ft | 140 kts | 61° |
| 2026-05-04 17:38 | 14.48100 | 120.96960 | 768 ft | 144 kts | 62° |
| 2026-05-04 17:38 | 14.48586 | 120.97857 | 631 ft | 139 kts | 63° |
| 2026-05-04 17:38 | 14.49078 | 120.98743 | 448 ft | 143 kts | 61° |
| 2026-05-04 17:38 | 14.49567 | 120.99602 | 243 ft | 133 kts | 58° |